createdAt,value
2023-03-08T00:00:41.268Z,95989.38
2023-03-08T00:03:13.226Z,95979.72
2023-03-08T00:05:41.212Z,95984.25
2023-03-08T00:08:09.726Z,95973.97
2023-03-08T00:10:38.423Z,95974.94
2023-03-08T00:13:06.571Z,95981.03
2023-03-08T00:15:34.714Z,95980.22
2023-03-08T00:18:02.866Z,95980.00
2023-03-08T00:20:32.345Z,95992.94
2023-03-08T00:23:00.409Z,95990.81
2023-03-08T00:25:28.535Z,95986.59
2023-03-08T00:27:56.553Z,95986.84
2023-03-08T00:30:24.990Z,95978.81
2023-03-08T00:32:53.108Z,95980.84
2023-03-08T00:35:21.207Z,95968.09
2023-03-08T00:37:50.777Z,95972.91
2023-03-08T00:40:19.179Z,95989.63
2023-03-08T00:42:47.212Z,95980.72
2023-03-08T00:45:15.842Z,95977.00
2023-03-08T00:47:43.807Z,95968.19
2023-03-08T00:50:12.715Z,95976.84
2023-03-08T00:52:41.163Z,95987.03
2023-03-08T00:55:11.680Z,95991.25
2023-03-08T00:57:39.706Z,95990.16
2023-03-08T01:00:12.843Z,95973.38
2023-03-08T01:02:41.457Z,95975.31
2023-03-08T01:05:10.739Z,95974.84
2023-03-08T01:07:38.763Z,95969.31
2023-03-08T01:10:07.566Z,95961.19
2023-03-08T01:12:36.953Z,95955.81
2023-03-08T01:15:06.128Z,95959.16
2023-03-08T01:17:34.484Z,95957.94
2023-03-08T01:20:02.799Z,95955.03
2023-03-08T01:22:30.828Z,95952.13
2023-03-08T01:24:58.940Z,95946.88
2023-03-08T01:27:26.987Z,95939.00
2023-03-08T01:29:56.476Z,95930.16
2023-03-08T01:32:24.587Z,95932.19
2023-03-08T01:34:52.813Z,95933.75
2023-03-08T01:37:20.840Z,95930.47
2023-03-08T01:39:49.323Z,95927.13
2023-03-08T01:42:17.370Z,95930.72
2023-03-08T01:44:53.214Z,95925.72
2023-03-08T01:47:23.227Z,95928.31
2023-03-08T01:49:51.307Z,95923.78
2023-03-08T01:52:21.392Z,95915.13
2023-03-08T01:54:50.370Z,95905.66
2023-03-08T01:57:19.307Z,95913.09
2023-03-08T01:59:47.898Z,95906.00
2023-03-08T02:02:15.996Z,95900.25
2023-03-08T02:04:45.422Z,95905.19
2023-03-08T02:07:13.430Z,95896.06
2023-03-08T02:09:41.473Z,95894.59
2023-03-08T02:12:53.854Z,95894.00
2023-03-08T02:15:23.941Z,95888.84
2023-03-08T02:17:52.690Z,95886.06
2023-03-08T02:20:23.268Z,95879.47
2023-03-08T02:22:53.347Z,95872.66
2023-03-08T02:25:22.294Z,95865.44
2023-03-08T02:27:50.332Z,95866.50
2023-03-08T02:30:19.595Z,95859.31
2023-03-08T02:32:47.635Z,95858.38
2023-03-08T02:35:15.624Z,95860.03
2023-03-08T02:37:43.677Z,95849.09
2023-03-08T02:40:14.495Z,95858.47
2023-03-08T02:42:42.503Z,95859.91
2023-03-08T02:45:11.515Z,95868.63
2023-03-08T02:47:39.577Z,95876.06
2023-03-08T02:50:08.658Z,95877.75
2023-03-08T02:52:37.033Z,95870.91
2023-03-08T02:55:05.604Z,95868.41
2023-03-08T02:57:35.046Z,95860.75
2023-03-08T03:00:03.114Z,95854.25
2023-03-08T03:02:31.157Z,95852.81
2023-03-08T03:04:59.182Z,95846.91
2023-03-08T03:07:27.131Z,95846.69
2023-03-08T03:09:55.346Z,95832.06
2023-03-08T03:12:23.704Z,95837.84
2023-03-08T03:14:53.183Z,95845.97
2023-03-08T03:17:21.234Z,95851.59
2023-03-08T03:19:49.714Z,95850.69
2023-03-08T03:22:17.799Z,95848.28
2023-03-08T03:24:45.788Z,95845.03
2023-03-08T03:27:14.228Z,95832.41
2023-03-08T03:29:42.247Z,95827.50
2023-03-08T03:32:11.844Z,95832.19
2023-03-08T03:34:40.255Z,95830.47
2023-03-08T03:37:08.416Z,95828.25
2023-03-08T03:39:39.112Z,95826.91
2023-03-08T03:42:07.568Z,95813.28
2023-03-08T03:44:35.930Z,95802.22
2023-03-08T03:47:04.294Z,95803.66
2023-03-08T03:49:33.723Z,95796.72
2023-03-08T03:52:02.315Z,95799.34
2023-03-08T03:54:30.333Z,95806.16
2023-03-08T03:56:58.902Z,95807.06
2023-03-08T03:59:27.042Z,95804.72
2023-03-08T04:01:55.098Z,95802.94
2023-03-08T04:04:23.158Z,95791.09
2023-03-08T04:06:52.635Z,95789.53
2023-03-08T04:09:20.635Z,95794.31
2023-03-08T04:11:49.380Z,95784.59
2023-03-08T04:14:17.803Z,95791.19
2023-03-08T04:16:46.897Z,95791.28
2023-03-08T04:19:14.914Z,95783.72
2023-03-08T04:21:43.340Z,95771.16
2023-03-08T04:24:12.785Z,95771.25
2023-03-08T04:26:40.745Z,95762.53
2023-03-08T04:29:08.909Z,95762.44
2023-03-08T04:31:37.276Z,95762.91
2023-03-08T04:34:05.477Z,95762.84
2023-03-08T04:36:33.774Z,95761.22
2023-03-08T04:39:01.897Z,95761.69
2023-03-08T04:41:31.299Z,95759.22
2023-03-08T04:43:59.350Z,95755.94
2023-03-08T04:46:28.140Z,95749.22
2023-03-08T04:48:56.239Z,95745.78
2023-03-08T04:51:26.919Z,95740.41
2023-03-08T04:53:54.924Z,95736.53
2023-03-08T04:56:23.004Z,95729.00
2023-03-08T04:58:52.410Z,95727.56
2023-03-08T05:01:22.332Z,95709.81
2023-03-08T05:03:50.685Z,95702.84
2023-03-08T05:06:19.023Z,95709.34
2023-03-08T05:08:47.046Z,95696.75
2023-03-08T05:11:17.662Z,95702.16
2023-03-08T05:13:45.627Z,95696.63
2023-03-08T05:16:15.530Z,95691.72
2023-03-08T05:18:43.559Z,95689.44
2023-03-08T05:21:13.017Z,95687.16
2023-03-08T05:23:41.028Z,95691.72
2023-03-08T05:26:09.881Z,95682.38
2023-03-08T05:28:38.379Z,95683.44
2023-03-08T05:31:07.397Z,95680.47
2023-03-08T05:33:36.880Z,95674.13
2023-03-08T05:36:05.869Z,95659.38
2023-03-08T05:38:34.338Z,95660.56
2023-03-08T05:41:03.022Z,95660.19
2023-03-08T05:43:31.021Z,95651.09
2023-03-08T05:46:00.314Z,95646.06
2023-03-08T05:48:28.619Z,95639.47
2023-03-08T05:50:58.100Z,95627.28
2023-03-08T05:53:26.349Z,95636.47
2023-03-08T05:55:55.716Z,95631.81
2023-03-08T05:58:23.898Z,95625.09
2023-03-08T06:00:51.889Z,95625.59
2023-03-08T06:03:21.744Z,95616.25
2023-03-08T06:05:49.793Z,95615.28
2023-03-08T06:08:19.346Z,95617.09
2023-03-08T06:10:48.966Z,95622.94
2023-03-08T06:13:17.045Z,95604.88
2023-03-08T06:15:45.093Z,95607.03
2023-03-08T06:18:13.106Z,95596.97
2023-03-08T06:20:41.527Z,95593.75
2023-03-08T06:23:09.712Z,95585.13
2023-03-08T06:25:40.006Z,95585.47
2023-03-08T06:28:09.695Z,95576.63
2023-03-08T06:30:38.087Z,95576.97
2023-03-08T06:33:06.132Z,95566.78
2023-03-08T06:35:36.127Z,95563.56
2023-03-08T06:38:08.389Z,95553.03
2023-03-08T06:40:41.594Z,95547.03
2023-03-08T06:43:09.801Z,95538.31
2023-03-08T06:45:39.419Z,95538.41
2023-03-08T06:48:07.878Z,95535.44
2023-03-08T06:50:35.836Z,95533.41
2023-03-08T06:53:04.463Z,95530.06
2023-03-08T06:55:32.548Z,95519.34
2023-03-08T06:58:01.943Z,95509.53
2023-03-08T07:00:30.363Z,95517.56
2023-03-08T07:02:59.083Z,95510.97
2023-03-08T07:05:28.189Z,95499.00
2023-03-08T07:07:57.338Z,95492.66
2023-03-08T07:10:26.440Z,95490.97
2023-03-08T07:12:56.194Z,95496.38
2023-03-08T07:15:25.838Z,95486.47
2023-03-08T07:17:55.762Z,95484.88
2023-03-08T07:20:24.573Z,95474.09
2023-03-08T07:22:52.794Z,95472.66
2023-03-08T07:25:21.754Z,95467.28
2023-03-08T07:27:49.844Z,95463.97
2023-03-08T07:30:18.290Z,95462.50
2023-03-08T07:32:47.948Z,95461.22
2023-03-08T07:35:16.539Z,95460.41
2023-03-08T07:37:45.767Z,95460.09
2023-03-08T07:40:15.072Z,95458.63
2023-03-08T07:42:43.354Z,95449.03
2023-03-08T07:45:26.897Z,95450.34
2023-03-08T07:48:35.973Z,95446.59
2023-03-08T07:51:06.573Z,95444.06
2023-03-08T07:53:36.486Z,95435.41
2023-03-08T07:56:06.775Z,95437.53
2023-03-08T07:58:34.834Z,95435.38
2023-03-08T08:01:03.206Z,95436.44
2023-03-08T08:03:33.344Z,95431.50
2023-03-08T08:06:04.172Z,95427.69
2023-03-08T08:08:32.283Z,95418.00
2023-03-08T08:11:00.344Z,95419.56
2023-03-08T08:13:28.419Z,95415.63
2023-03-08T08:16:00.414Z,95407.59
2023-03-08T08:18:28.530Z,95409.25
2023-03-08T08:21:04.901Z,95405.34
2023-03-08T08:23:33.401Z,95400.38
2023-03-08T08:26:02.099Z,95398.84
2023-03-08T08:28:30.684Z,95393.16
2023-03-08T08:31:01.432Z,95390.31
2023-03-08T08:33:34.772Z,95388.09
2023-03-08T08:36:07.208Z,95387.31
2023-03-08T08:38:35.345Z,95381.97
2023-03-08T08:41:04.425Z,95372.91
2023-03-08T08:43:32.760Z,95365.66
2023-03-08T08:46:01.248Z,95357.91
2023-03-08T08:48:30.067Z,95351.50
2023-03-08T08:50:59.607Z,95350.69
2023-03-08T08:53:29.107Z,95352.03
2023-03-08T08:55:57.394Z,95344.50
2023-03-08T08:58:25.685Z,95345.50
2023-03-08T09:00:53.656Z,95338.38
2023-03-08T09:03:21.790Z,95335.19
2023-03-08T09:05:50.639Z,95327.25
2023-03-08T09:08:21.601Z,95334.66
2023-03-08T09:10:50.989Z,95321.91
2023-03-08T09:13:19.324Z,95310.78
2023-03-08T09:15:47.504Z,95302.84
2023-03-08T09:18:15.997Z,95298.94
2023-03-08T09:20:44.160Z,95302.72
2023-03-08T09:23:12.340Z,95289.50
2023-03-08T09:25:40.377Z,95284.59
2023-03-08T09:28:10.427Z,95286.53
2023-03-08T09:30:38.481Z,95283.91
2023-03-08T09:33:06.696Z,95279.88
2023-03-08T09:35:35.168Z,95270.91
2023-03-08T09:38:05.174Z,95275.09
2023-03-08T09:40:34.980Z,95272.47
2023-03-08T09:43:05.806Z,95275.22
2023-03-08T09:45:35.536Z,95265.16
2023-03-08T09:48:07.808Z,95264.97
2023-03-08T09:50:45.060Z,95260.31
2023-03-08T09:53:19.062Z,95260.38
2023-03-08T09:55:49.718Z,95260.06
2023-03-08T09:58:22.498Z,95254.56
2023-03-08T10:00:52.853Z,95259.81
2023-03-08T10:03:39.278Z,95245.63
2023-03-08T10:06:11.507Z,95245.31
2023-03-08T10:08:46.111Z,95252.28
2023-03-08T10:11:16.983Z,95251.59
2023-03-08T10:13:48.044Z,95249.25
2023-03-08T10:16:23.069Z,95255.44
2023-03-08T10:18:52.840Z,95248.31
2023-03-08T10:21:25.579Z,95240.09
2023-03-08T10:23:58.529Z,95239.97
2023-03-08T10:26:26.781Z,95234.53
2023-03-08T10:28:54.914Z,95233.13
2023-03-08T10:31:28.217Z,95233.47
2023-03-08T10:34:03.204Z,95224.13
2023-03-08T10:36:31.463Z,95218.09
2023-03-08T10:39:06.851Z,95222.06
2023-03-08T10:41:42.766Z,95218.53
2023-03-08T10:44:17.748Z,95213.16
2023-03-08T10:46:50.982Z,95210.78
2023-03-08T10:49:19.966Z,95220.69
2023-03-08T10:51:57.819Z,95216.84
2023-03-08T10:54:25.840Z,95224.75
2023-03-08T10:56:58.035Z,95218.75
2023-03-08T10:59:32.940Z,95204.44
2023-03-08T11:02:05.791Z,95206.81
2023-03-08T11:04:33.993Z,95201.72
2023-03-08T11:07:13.580Z,95197.19
2023-03-08T11:09:52.117Z,95198.88
2023-03-08T11:12:24.923Z,95191.06
2023-03-08T11:14:53.331Z,95179.75
2023-03-08T11:17:25.021Z,95170.06
2023-03-08T11:20:00.481Z,95171.66
2023-03-08T11:22:57.882Z,95172.28
2023-03-08T11:25:40.697Z,95179.38
2023-03-08T11:28:40.095Z,95159.44
2023-03-08T11:31:19.942Z,95172.41
2023-03-08T11:33:56.059Z,95178.09
2023-03-08T11:36:26.254Z,95170.63
2023-03-08T11:38:58.670Z,95161.81
2023-03-08T11:41:30.216Z,95165.59
2023-03-08T11:44:08.094Z,95171.88
2023-03-08T11:46:43.323Z,95174.03
2023-03-08T11:49:22.328Z,95172.72
2023-03-08T11:51:52.815Z,95163.03
2023-03-08T11:54:37.540Z,95154.53
2023-03-08T11:57:06.787Z,95144.00
2023-03-08T11:59:35.756Z,95150.31
2023-03-08T12:02:08.629Z,95144.97
2023-03-08T12:04:40.745Z,95166.31
2023-03-08T12:07:11.126Z,95159.81
2023-03-08T12:09:52.969Z,95157.19
2023-03-08T12:12:22.925Z,95169.13
2023-03-08T12:14:53.897Z,95170.13
2023-03-08T12:17:24.126Z,95160.03
2023-03-08T12:19:54.028Z,95154.66
2023-03-08T12:22:41.732Z,95143.13
2023-03-08T12:25:13.721Z,95141.84
2023-03-08T12:27:44.452Z,95151.38
2023-03-08T12:30:19.896Z,95150.19
2023-03-08T12:32:48.569Z,95149.66
2023-03-08T12:35:29.259Z,95150.47
2023-03-08T12:37:58.730Z,95139.94
2023-03-08T12:40:31.677Z,95143.22
2023-03-08T12:43:08.174Z,95142.06
2023-03-08T12:45:36.274Z,95142.53
2023-03-08T12:48:20.289Z,95123.63
2023-03-08T12:51:00.132Z,95130.53
2023-03-08T12:53:33.321Z,95120.16
2023-03-08T12:56:03.184Z,95116.22
2023-03-08T12:58:31.761Z,95123.91
2023-03-08T13:01:01.532Z,95117.63
2023-03-08T13:03:31.035Z,95121.13
2023-03-08T13:06:00.590Z,95122.53
2023-03-08T13:08:34.975Z,95134.03
2023-03-08T13:11:08.012Z,95129.03
2023-03-08T13:13:41.703Z,95112.19
2023-03-08T13:16:25.452Z,95113.72
2023-03-08T13:19:07.644Z,95109.31
2023-03-08T13:21:41.583Z,95120.16
2023-03-08T13:24:13.389Z,95117.66
2023-03-08T13:26:51.338Z,95119.44
2023-03-08T13:29:22.470Z,95114.19
2023-03-08T13:31:50.544Z,95110.59
2023-03-08T13:34:26.253Z,95114.63
2023-03-08T13:36:56.805Z,95105.41
2023-03-08T13:39:26.781Z,95107.69
2023-03-08T13:42:07.003Z,95103.72
2023-03-08T13:44:34.947Z,95095.31
2023-03-08T13:47:03.945Z,95096.88
2023-03-08T13:49:33.603Z,95088.06
2023-03-08T13:52:04.053Z,95089.28
2023-03-08T13:54:33.359Z,95077.72
2023-03-08T13:57:04.187Z,95081.19
2023-03-08T13:59:32.458Z,95084.94
2023-03-08T14:02:00.538Z,95087.31
2023-03-08T14:04:30.560Z,95088.25
2023-03-08T14:06:59.739Z,95093.81
2023-03-08T14:09:29.198Z,95093.38
2023-03-08T14:11:59.899Z,95086.44
2023-03-08T14:14:30.306Z,95075.78
2023-03-08T14:16:58.528Z,95075.44
2023-03-08T14:19:28.367Z,95063.28
2023-03-08T14:21:57.939Z,95074.47
2023-03-08T14:24:28.261Z,95080.50
2023-03-08T14:27:00.705Z,95083.06
2023-03-08T14:29:29.396Z,95082.25
2023-03-08T14:32:00.222Z,95086.94
2023-03-08T14:34:29.443Z,95093.28
2023-03-08T14:36:59.011Z,95094.28
2023-03-08T14:39:29.482Z,95097.25
2023-03-08T14:41:57.550Z,95075.84
2023-03-08T14:44:26.821Z,95064.78
2023-03-08T14:46:59.307Z,95058.72
2023-03-08T14:49:28.557Z,95054.41
2023-03-08T14:51:57.087Z,95047.19
2023-03-08T14:54:32.929Z,95049.44
2023-03-08T14:57:03.538Z,95035.34
2023-03-08T14:59:31.974Z,95037.66
2023-03-08T15:02:00.187Z,95040.84
2023-03-08T15:04:28.267Z,95041.47
2023-03-08T15:06:56.664Z,95038.97
2023-03-08T15:09:26.344Z,95040.22
2023-03-08T15:12:00.077Z,95039.59
2023-03-08T15:14:28.904Z,95034.88
2023-03-08T15:17:07.558Z,95033.13
2023-03-08T15:19:36.594Z,95042.56
2023-03-08T15:22:07.809Z,95039.97
2023-03-08T15:24:36.254Z,95043.97
2023-03-08T15:27:05.980Z,95036.47
2023-03-08T15:29:36.957Z,95035.59
2023-03-08T15:32:05.110Z,95039.19
2023-03-08T15:34:37.441Z,95045.00
2023-03-08T15:37:09.643Z,95051.34
2023-03-08T15:39:37.849Z,95049.41
2023-03-08T15:42:08.311Z,95055.31
2023-03-08T15:44:36.432Z,95040.69
2023-03-08T15:47:04.654Z,95047.97
2023-03-08T15:49:34.992Z,95053.47
2023-03-08T15:52:05.925Z,95048.47
2023-03-08T15:54:37.055Z,95051.31
2023-03-08T15:57:05.455Z,95048.47
2023-03-08T15:59:36.559Z,95054.59
2023-03-08T16:02:07.538Z,95048.75
2023-03-08T16:04:36.754Z,95055.78
2023-03-08T16:07:04.914Z,95064.13
2023-03-08T16:09:33.153Z,95056.13
2023-03-08T16:12:01.357Z,95058.28
2023-03-08T16:14:29.713Z,95063.56
2023-03-08T16:17:00.747Z,95065.06
2023-03-08T16:19:34.964Z,95068.94
2023-03-08T16:22:03.332Z,95068.28
2023-03-08T16:24:31.885Z,95066.44
2023-03-08T16:27:00.581Z,95062.41
2023-03-08T16:29:28.604Z,95063.66
2023-03-08T16:31:59.895Z,95059.47
2023-03-08T16:34:28.128Z,95065.94
2023-03-08T16:36:56.432Z,95063.41
2023-03-08T16:39:24.986Z,95063.72
2023-03-08T16:41:53.220Z,95054.34
2023-03-08T16:44:23.357Z,95061.44
2023-03-08T16:46:51.742Z,95053.91
2023-03-08T16:49:21.215Z,95063.94
2023-03-08T16:51:51.773Z,95060.38
2023-03-08T16:54:19.924Z,95060.25
2023-03-08T16:56:48.369Z,95055.94
2023-03-08T16:59:16.547Z,95059.25
2023-03-08T17:01:44.919Z,95060.44
2023-03-08T17:04:13.269Z,95059.91
2023-03-08T17:06:46.575Z,95062.50
2023-03-08T17:09:14.572Z,95057.94
2023-03-08T17:11:43.245Z,95052.63
2023-03-08T17:14:12.018Z,95051.84
2023-03-08T17:16:41.056Z,95050.50
2023-03-08T17:19:10.012Z,95044.56
2023-03-08T17:21:38.930Z,95049.34
2023-03-08T17:24:09.004Z,95069.44
2023-03-08T17:26:40.773Z,95059.75
2023-03-08T17:29:09.378Z,95060.03
2023-03-08T17:31:39.452Z,95055.28
2023-03-08T17:34:08.732Z,95043.75
2023-03-08T17:36:36.926Z,95050.50
2023-03-08T17:39:05.277Z,95048.09
2023-03-08T17:41:35.795Z,95055.84
2023-03-08T17:44:03.835Z,95040.19
2023-03-08T17:46:33.962Z,95047.28
2023-03-08T17:49:02.059Z,95051.97
2023-03-08T17:51:31.303Z,95052.13
2023-03-08T17:54:01.127Z,95052.03
2023-03-08T17:56:30.390Z,95049.38
2023-03-08T17:59:01.134Z,95046.41
2023-03-08T18:01:31.064Z,95053.41
2023-03-08T18:03:59.124Z,95057.19
2023-03-08T18:06:29.899Z,95052.28
2023-03-08T18:08:58.072Z,95056.81
2023-03-08T18:11:26.494Z,95055.53
2023-03-08T18:13:55.099Z,95049.00
2023-03-08T18:16:24.969Z,95049.28
2023-03-08T18:18:53.002Z,95048.66
2023-03-08T18:21:21.703Z,95062.13
2023-03-08T18:23:49.919Z,95061.66
2023-03-08T18:26:18.656Z,95048.50
2023-03-08T18:28:46.871Z,95044.72
2023-03-08T18:31:16.876Z,95051.22
2023-03-08T18:33:46.632Z,95051.75
2023-03-08T18:36:15.340Z,95047.22
2023-03-08T18:38:43.564Z,95044.34
2023-03-08T18:41:15.728Z,95050.94
2023-03-08T18:43:44.290Z,95044.81
2023-03-08T18:46:13.521Z,95045.00
2023-03-08T18:48:41.776Z,95048.28
2023-03-08T18:51:11.296Z,95061.94
2023-03-08T18:53:39.395Z,95057.81
2023-03-08T18:56:12.318Z,95058.31
2023-03-08T18:58:42.305Z,95053.78
2023-03-08T19:01:11.650Z,95046.19
2023-03-08T19:03:40.501Z,95050.16
2023-03-08T19:06:10.484Z,95045.41
2023-03-08T19:08:38.909Z,95051.75
2023-03-08T19:11:15.037Z,95047.31
2023-03-08T19:13:43.575Z,95046.75
2023-03-08T19:16:19.721Z,95053.16
2023-03-08T19:18:48.256Z,95050.72
2023-03-08T19:21:18.773Z,95047.72
2023-03-08T19:23:47.096Z,95049.25
2023-03-08T19:26:33.012Z,95055.06
2023-03-08T19:29:01.238Z,95054.91
2023-03-08T19:31:30.827Z,95047.56
2023-03-08T19:34:00.723Z,95054.53
2023-03-08T19:36:31.643Z,95054.19
2023-03-08T19:38:59.931Z,95061.44
2023-03-08T19:41:28.617Z,95056.88
2023-03-08T19:43:56.755Z,95057.38
2023-03-08T19:46:28.594Z,95053.84
2023-03-08T19:48:57.766Z,95039.72
2023-03-08T19:51:25.857Z,95045.22
2023-03-08T19:53:55.346Z,95050.03
2023-03-08T19:56:23.879Z,95022.44
2023-03-08T19:58:52.301Z,95026.50
2023-03-08T20:01:20.774Z,95045.03
2023-03-08T20:03:49.245Z,95044.34
2023-03-08T20:06:23.244Z,95031.28
2023-03-08T20:08:51.696Z,95037.22
2023-03-08T20:11:22.288Z,95048.56
2023-03-08T20:13:50.331Z,95044.59
2023-03-08T20:16:18.661Z,95038.75
2023-03-08T20:18:49.402Z,95033.38
2023-03-08T20:21:18.468Z,95032.25
2023-03-08T20:23:47.027Z,95043.91
2023-03-08T20:26:15.166Z,95042.69
2023-03-08T20:28:45.244Z,95047.59
2023-03-08T20:31:15.555Z,95035.34
2023-03-08T20:33:43.971Z,95044.66
2023-03-08T20:36:12.382Z,95048.22
2023-03-08T20:38:40.605Z,95041.84
2023-03-08T20:41:12.044Z,95046.13
2023-03-08T20:43:40.394Z,95037.84
2023-03-08T20:46:11.698Z,95036.72
2023-03-08T20:48:40.769Z,95037.53
2023-03-08T20:51:09.963Z,95035.47
2023-03-08T20:53:39.090Z,95027.47
2023-03-08T20:56:08.229Z,95034.97
2023-03-08T20:58:36.581Z,95033.84
2023-03-08T21:01:12.663Z,95030.38
2023-03-08T21:03:40.922Z,95026.56
2023-03-08T21:06:16.095Z,95035.25
2023-03-08T21:08:44.659Z,95027.31
2023-03-08T21:11:12.825Z,95030.13
2023-03-08T21:13:41.016Z,95023.34
2023-03-08T21:16:10.177Z,95030.44
2023-03-08T21:18:41.820Z,95043.81
2023-03-08T21:21:09.892Z,95033.75
2023-03-08T21:23:37.948Z,95028.53
2023-03-08T21:26:09.979Z,95030.50
2023-03-08T21:28:40.431Z,95035.41
2023-03-08T21:31:10.234Z,95039.44
2023-03-08T21:33:40.261Z,95036.00
2023-03-08T21:36:08.925Z,95036.41
2023-03-08T21:38:37.259Z,95029.66
2023-03-08T21:41:05.500Z,95014.22
2023-03-08T21:43:33.809Z,95028.59
2023-03-08T21:46:01.971Z,95000.63
2023-03-08T21:48:30.073Z,95018.41
2023-03-08T21:50:59.679Z,95015.66
2023-03-08T21:53:27.886Z,95005.97
2023-03-08T21:55:56.370Z,94998.94
2023-03-08T21:58:24.543Z,94992.03
2023-03-08T22:00:54.296Z,95006.56
2023-03-08T22:03:22.943Z,94983.84
2023-03-08T22:05:51.304Z,94977.53
2023-03-08T22:08:21.930Z,94978.13
2023-03-08T22:10:50.273Z,94981.41
2023-03-08T22:13:18.370Z,94977.19
2023-03-08T22:15:46.434Z,94981.53
2023-03-08T22:18:14.601Z,94974.44
2023-03-08T22:20:43.102Z,94965.78
2023-03-08T22:23:11.241Z,94970.59
2023-03-08T22:25:40.805Z,94969.94
2023-03-08T22:28:09.380Z,94972.13
2023-03-08T22:30:37.476Z,94957.94
2023-03-08T22:33:05.716Z,94954.63
2023-03-08T22:35:33.992Z,94952.31
2023-03-08T22:38:02.111Z,94961.59
2023-03-08T22:40:30.254Z,94959.13
2023-03-08T22:43:00.190Z,94959.66
2023-03-08T22:45:28.373Z,94954.41
2023-03-08T22:47:56.522Z,94952.41
2023-03-08T22:50:25.119Z,94946.97
2023-03-08T22:52:55.578Z,94943.97
2023-03-08T22:55:23.677Z,94931.56
2023-03-08T22:57:51.776Z,94934.25
2023-03-08T23:00:21.503Z,94933.91
2023-03-08T23:02:49.923Z,94928.44
2023-03-08T23:05:20.649Z,94933.88
2023-03-08T23:07:48.855Z,94930.78
2023-03-08T23:10:17.554Z,94933.75
2023-03-08T23:12:46.071Z,94931.25
2023-03-08T23:15:14.394Z,94931.13
2023-03-08T23:17:43.978Z,94937.25
2023-03-08T23:20:13.606Z,94930.63
2023-03-08T23:22:44.611Z,94926.31
2023-03-08T23:25:13.171Z,94918.03
2023-03-08T23:27:41.432Z,94919.69
2023-03-08T23:30:10.890Z,94916.06
2023-03-08T23:32:39.570Z,94911.44
2023-03-08T23:35:11.125Z,94902.97
2023-03-08T23:37:40.554Z,94910.25
2023-03-08T23:40:11.030Z,94908.09
2023-03-08T23:42:40.055Z,94906.47
2023-03-08T23:45:09.105Z,94900.66
2023-03-08T23:47:37.195Z,94902.50
2023-03-08T23:50:05.857Z,94906.66
2023-03-08T23:52:35.336Z,94918.91
2023-03-08T23:55:03.600Z,94911.28
2023-03-08T23:57:31.777Z,94912.59
